CLA weather

Comilla Airport
Comilla, Chittagong Division, Bangladesh

Public forecast

Using degrees Celsius for public forecast. Weather courtesy of forecast.io.

Closest aviation weather report (METAR) to Comilla Airport

Closest report is Agartala Airport, 27.1 nm (50.3 km) N. Retrieved 2020/02/18 06:30 UTC (0 seconds ago):

VEAT 180630Z 32002KT 2500 HZ NSC 28/15 Q1014 NOSIG

Closest aviation forecast (TAF) to Comilla Airport

Forecast is more than 12 hours old.

Closest forecast is Agartala Airport, 27.1 nm (50.3 km) N. Retrieved 2013/07/19 12:00 UTC (7 years ago):

TAF VEAT 190900Z 1912/1921 16008KT 5000 HZ SCT018 FEW030CB BKN100 TEMPO 1912/1921 3000 -TSRA SCT015 FEW025CB OVC090